createdAt,value
2022-08-28T00:00:38.943Z,1.60
2022-08-28T00:03:06.487Z,1.40
2022-08-28T00:05:34.265Z,1.50
2022-08-28T00:08:01.738Z,1.65
2022-08-28T00:10:29.405Z,1.85
2022-08-28T00:12:58.178Z,1.58
2022-08-28T00:15:33.175Z,1.83
2022-08-28T00:18:00.723Z,1.40
2022-08-28T00:20:29.702Z,1.77
2022-08-28T00:22:57.521Z,1.50
2022-08-28T00:25:26.950Z,1.42
2022-08-28T00:27:57.431Z,1.50
2022-08-28T00:30:35.687Z,1.55
2022-08-28T00:33:06.914Z,1.30
2022-08-28T00:35:34.236Z,1.35
2022-08-28T00:38:01.343Z,1.38
2022-08-28T00:40:33.051Z,1.67
2022-08-28T00:43:02.798Z,1.52
2022-08-28T00:45:32.439Z,1.45
2022-08-28T00:48:02.304Z,1.70
2022-08-28T00:51:00.122Z,1.45
2022-08-28T00:53:30.071Z,1.10
2022-08-28T00:56:04.179Z,1.48
2022-08-28T00:58:34.209Z,1.73
2022-08-28T01:01:01.647Z,1.90
2022-08-28T01:03:28.944Z,1.33
2022-08-28T01:05:56.401Z,2.10
2022-08-28T01:08:23.370Z,1.50
2022-08-28T01:10:54.956Z,1.40
2022-08-28T01:13:23.649Z,1.70
2022-08-28T01:15:51.532Z,1.30
2022-08-28T01:18:19.532Z,1.60
2022-08-28T01:21:03.321Z,1.27
2022-08-28T01:23:48.216Z,1.48
2022-08-28T01:26:15.513Z,1.70
2022-08-28T01:28:42.751Z,1.52
2022-08-28T01:31:14.439Z,1.63
2022-08-28T01:33:42.761Z,1.70
2022-08-28T01:36:12.178Z,2.00
2022-08-28T01:38:40.357Z,1.60
2022-08-28T01:41:07.898Z,1.35
2022-08-28T01:43:35.206Z,1.67
2022-08-28T01:46:04.952Z,1.50
2022-08-28T01:48:35.862Z,1.85
2022-08-28T01:51:04.771Z,1.35
2022-08-28T01:53:32.985Z,1.17
2022-08-28T01:56:02.349Z,1.50
2022-08-28T01:58:36.016Z,1.40
2022-08-28T02:01:10.667Z,1.60
2022-08-28T02:03:38.014Z,1.23
2022-08-28T02:06:05.349Z,1.60
2022-08-28T02:08:32.269Z,1.70
2022-08-28T02:10:59.487Z,1.50
2022-08-28T02:13:26.412Z,1.73
2022-08-28T02:15:53.688Z,1.40
2022-08-28T02:18:20.975Z,1.75
2022-08-28T02:20:47.759Z,1.60
2022-08-28T02:23:15.337Z,1.55
2022-08-28T02:25:42.208Z,1.27
2022-08-28T02:28:09.685Z,1.40
2022-08-28T02:30:37.346Z,1.42
2022-08-28T02:33:04.584Z,1.48
2022-08-28T02:35:31.820Z,1.40
2022-08-28T02:38:00.428Z,1.40
2022-08-28T02:40:28.321Z,1.65
2022-08-28T02:42:55.302Z,1.42
2022-08-28T02:45:22.760Z,1.65
2022-08-28T02:47:52.183Z,1.73
2022-08-28T02:50:19.865Z,1.40
2022-08-28T02:52:47.515Z,2.13
2022-08-28T02:55:17.337Z,1.80
2022-08-28T02:57:44.860Z,1.80
2022-08-28T03:00:15.670Z,1.60
2022-08-28T03:02:45.573Z,1.30
2022-08-28T03:05:16.135Z,1.55
2022-08-28T03:07:43.519Z,1.30
2022-08-28T03:10:10.879Z,1.50
2022-08-28T03:12:38.410Z,2.17
2022-08-28T03:15:07.717Z,1.65
2022-08-28T03:17:36.532Z,1.40
2022-08-28T03:20:06.968Z,1.55
2022-08-28T03:22:52.839Z,1.83
2022-08-28T03:25:22.812Z,1.52
2022-08-28T03:27:50.788Z,1.20
2022-08-28T03:30:20.082Z,1.63
2022-08-28T03:32:47.528Z,1.38
2022-08-28T03:35:14.736Z,1.33
2022-08-28T03:37:41.943Z,1.40
2022-08-28T03:40:10.017Z,0.93
2022-08-28T03:42:37.471Z,1.60
2022-08-28T03:45:08.231Z,1.77
2022-08-28T03:47:39.544Z,1.50
2022-08-28T03:50:08.506Z,1.52
2022-08-28T03:52:39.228Z,1.35
2022-08-28T03:55:08.730Z,1.95
2022-08-28T03:57:36.734Z,1.25
2022-08-28T04:00:06.575Z,1.30
2022-08-28T04:02:41.012Z,1.27
2022-08-28T04:05:09.544Z,1.48
2022-08-28T04:07:37.170Z,1.30
2022-08-28T04:10:04.623Z,1.10
2022-08-28T04:12:35.239Z,1.42
2022-08-28T04:15:04.207Z,1.30
2022-08-28T04:17:32.360Z,1.30
2022-08-28T04:19:59.561Z,1.70
2022-08-28T04:22:26.816Z,1.33
2022-08-28T04:24:54.554Z,1.20
2022-08-28T04:27:21.796Z,1.30
2022-08-28T04:29:49.197Z,1.27
2022-08-28T04:32:16.559Z,1.42
2022-08-28T04:34:44.237Z,1.30
2022-08-28T04:37:12.345Z,1.52
2022-08-28T04:39:39.845Z,1.65
2022-08-28T04:42:07.335Z,1.60
2022-08-28T04:44:35.347Z,1.63
2022-08-28T04:47:02.692Z,1.40
2022-08-28T04:49:30.145Z,1.70
2022-08-28T04:51:56.925Z,1.45
2022-08-28T04:54:24.138Z,1.65
2022-08-28T04:56:51.978Z,1.63
2022-08-28T04:59:19.190Z,1.15
2022-08-28T05:01:46.256Z,1.65
2022-08-28T05:04:13.759Z,1.30
2022-08-28T05:06:45.948Z,1.55
2022-08-28T05:09:15.237Z,1.48
2022-08-28T05:11:42.773Z,1.45
2022-08-28T05:14:15.740Z,1.42
2022-08-28T05:16:47.621Z,1.25
2022-08-28T05:19:16.268Z,1.50
2022-08-28T05:21:44.080Z,1.67
2022-08-28T05:24:11.586Z,1.60
2022-08-28T05:26:40.190Z,1.60
2022-08-28T05:29:10.083Z,1.25
2022-08-28T05:31:39.163Z,1.10
2022-08-28T05:34:07.122Z,1.10
2022-08-28T05:36:38.312Z,1.77
2022-08-28T05:39:09.255Z,1.20
2022-08-28T05:41:36.928Z,1.38
2022-08-28T05:44:06.602Z,1.30
2022-08-28T05:46:34.609Z,1.30
2022-08-28T05:49:03.928Z,1.10
2022-08-28T05:51:34.307Z,1.25
2022-08-28T05:54:02.348Z,0.95
2022-08-28T05:56:33.977Z,1.50
2022-08-28T05:59:02.295Z,1.15
2022-08-28T06:01:32.124Z,1.55
2022-08-28T06:04:11.845Z,1.38
2022-08-28T06:06:40.285Z,1.30
2022-08-28T06:09:14.789Z,1.20
2022-08-28T06:11:46.122Z,1.35
2022-08-28T06:14:16.590Z,1.08
2022-08-28T06:16:48.149Z,1.65
2022-08-28T06:19:16.923Z,1.15
2022-08-28T06:21:44.308Z,1.27
2022-08-28T06:24:12.193Z,0.98
2022-08-28T06:26:39.480Z,1.30
2022-08-28T06:29:09.477Z,1.33
2022-08-28T06:31:36.897Z,1.20
2022-08-28T06:34:04.727Z,1.42
2022-08-28T06:36:34.691Z,1.58
2022-08-28T06:39:04.007Z,1.00
2022-08-28T06:41:32.233Z,1.25
2022-08-28T06:43:59.509Z,0.88
2022-08-28T06:46:27.214Z,1.40
2022-08-28T06:48:54.446Z,1.50
2022-08-28T06:51:24.849Z,1.58
2022-08-28T06:53:52.328Z,1.17
2022-08-28T06:56:26.328Z,1.08
2022-08-28T06:58:55.655Z,1.42
2022-08-28T07:01:29.216Z,1.40
2022-08-28T07:03:59.612Z,1.17
2022-08-28T07:06:27.160Z,1.25
2022-08-28T07:08:54.475Z,1.38
2022-08-28T07:11:28.695Z,1.15
2022-08-28T07:13:57.235Z,1.60
2022-08-28T07:16:29.403Z,1.13
2022-08-28T07:18:56.829Z,1.50
2022-08-28T07:21:23.704Z,1.42
2022-08-28T07:23:51.036Z,1.35
2022-08-28T07:26:19.995Z,1.10
2022-08-28T07:28:47.329Z,1.35
2022-08-28T07:31:16.574Z,1.23
2022-08-28T07:33:44.530Z,1.35
2022-08-28T07:36:15.870Z,1.25
2022-08-28T07:38:58.107Z,1.08
2022-08-28T07:41:29.865Z,1.33
2022-08-28T07:44:16.024Z,2.03
2022-08-28T07:46:44.130Z,1.83
2022-08-28T07:49:11.979Z,1.20
2022-08-28T07:51:39.268Z,1.02
2022-08-28T07:54:06.576Z,1.55
2022-08-28T07:56:40.776Z,1.73
2022-08-28T07:59:09.784Z,1.45
2022-08-28T08:01:42.273Z,2.03
2022-08-28T08:04:12.631Z,1.30
2022-08-28T08:06:40.884Z,1.08
2022-08-28T08:09:12.551Z,5.40
2022-08-28T08:11:39.392Z,7.72
2022-08-28T08:14:07.369Z,4.28
2022-08-28T08:16:36.370Z,4.28
2022-08-28T08:19:04.335Z,3.28
2022-08-28T08:21:37.524Z,1.80
2022-08-28T08:24:05.171Z,2.17
2022-08-28T08:26:33.089Z,1.48
2022-08-28T08:29:00.568Z,1.42
2022-08-28T08:31:29.696Z,2.25
2022-08-28T08:34:01.340Z,1.38
2022-08-28T08:36:29.404Z,1.42
2022-08-28T08:38:59.569Z,1.25
2022-08-28T08:41:48.113Z,1.63
2022-08-28T08:44:18.427Z,1.48
2022-08-28T08:46:45.853Z,1.30
2022-08-28T08:49:18.588Z,1.27
2022-08-28T08:52:00.625Z,1.48
2022-08-28T08:54:27.829Z,1.80
2022-08-28T08:56:56.320Z,1.40
2022-08-28T08:59:30.220Z,1.80
2022-08-28T09:02:04.815Z,1.30
2022-08-28T09:04:50.757Z,1.65
2022-08-28T09:07:22.462Z,1.60
2022-08-28T09:09:56.958Z,1.30
2022-08-28T09:12:26.141Z,1.60
2022-08-28T09:15:05.283Z,1.50
2022-08-28T09:17:35.523Z,1.80
2022-08-28T09:20:04.073Z,1.50
2022-08-28T09:22:31.685Z,1.17
2022-08-28T09:25:00.045Z,1.17
2022-08-28T09:27:29.109Z,1.67
2022-08-28T09:30:07.626Z,1.20
2022-08-28T09:32:42.210Z,1.63
2022-08-28T09:35:32.741Z,2.25
2022-08-28T09:38:19.379Z,1.83
2022-08-28T09:41:06.179Z,1.23
2022-08-28T09:43:36.106Z,1.33
2022-08-28T09:46:17.256Z,1.23
2022-08-28T09:48:46.915Z,1.23
2022-08-28T09:51:23.331Z,1.13
2022-08-28T09:53:54.912Z,1.65
2022-08-28T09:56:38.077Z,1.25
2022-08-28T09:59:24.552Z,1.75
2022-08-28T10:02:21.998Z,1.63
2022-08-28T10:04:53.587Z,1.00
2022-08-28T10:07:24.205Z,1.60
2022-08-28T10:10:11.194Z,1.42
2022-08-28T10:12:59.557Z,1.50
2022-08-28T10:15:31.074Z,1.40
2022-08-28T10:18:22.826Z,1.63
2022-08-28T10:20:57.238Z,1.25
2022-08-28T10:23:29.655Z,1.40
2022-08-28T10:26:21.959Z,1.38
2022-08-28T10:28:52.865Z,1.42
2022-08-28T10:31:31.444Z,1.80
2022-08-28T10:34:00.598Z,1.55
2022-08-28T10:36:34.716Z,1.77
2022-08-28T10:39:21.420Z,1.35
2022-08-28T10:41:52.405Z,1.45
2022-08-28T10:44:27.978Z,1.25
2022-08-28T10:46:59.152Z,1.38
2022-08-28T10:49:44.234Z,1.27
2022-08-28T10:52:13.160Z,1.38
2022-08-28T10:54:43.906Z,1.75
2022-08-28T10:57:13.836Z,1.75
2022-08-28T10:59:42.562Z,1.48
2022-08-28T11:02:12.238Z,1.55
2022-08-28T11:04:40.758Z,1.27
2022-08-28T11:07:09.672Z,1.20
2022-08-28T11:09:39.389Z,1.70
2022-08-28T11:12:10.193Z,1.50
2022-08-28T11:14:48.412Z,1.30
2022-08-28T11:17:27.882Z,1.15
2022-08-28T11:20:10.350Z,1.52
2022-08-28T11:22:39.536Z,2.05
2022-08-28T11:25:17.392Z,1.73
2022-08-28T11:28:22.638Z,1.80
2022-08-28T11:31:19.235Z,1.38
2022-08-28T11:33:59.116Z,1.10
2022-08-28T11:36:28.236Z,1.70
2022-08-28T11:38:55.553Z,1.80
2022-08-28T11:41:27.590Z,2.00
2022-08-28T11:44:10.871Z,1.80
2022-08-28T11:46:49.456Z,1.17
2022-08-28T11:49:35.016Z,1.25
2022-08-28T11:52:20.517Z,1.73
2022-08-28T11:54:55.495Z,1.88
2022-08-28T11:57:22.718Z,1.20
2022-08-28T11:59:49.469Z,1.70
2022-08-28T12:02:35.703Z,1.50
2022-08-28T12:07:41.315Z,1.00
2022-08-28T12:10:29.582Z,1.38
2022-08-28T12:13:04.318Z,1.38
2022-08-28T12:15:31.507Z,1.27
2022-08-28T12:17:59.781Z,1.50
2022-08-28T12:20:33.151Z,1.20
2022-08-28T12:23:02.495Z,1.40
2022-08-28T12:25:42.173Z,1.30
2022-08-28T12:28:20.392Z,1.27
2022-08-28T12:31:13.921Z,1.58
2022-08-28T12:33:58.560Z,1.48
2022-08-28T12:36:26.869Z,1.00
2022-08-28T12:38:54.909Z,1.10
2022-08-28T12:41:24.538Z,1.23
2022-08-28T12:43:59.824Z,1.85
2022-08-28T12:46:31.781Z,1.50
2022-08-28T12:49:00.678Z,1.52
2022-08-28T12:51:29.996Z,1.33
2022-08-28T12:54:01.815Z,1.77
2022-08-28T12:56:30.395Z,1.98
2022-08-28T12:59:17.559Z,1.67
2022-08-28T13:01:44.916Z,1.63
2022-08-28T13:04:30.963Z,1.33
2022-08-28T13:07:01.617Z,1.45
2022-08-28T13:09:29.579Z,1.40
2022-08-28T13:11:56.840Z,0.98
2022-08-28T13:14:44.229Z,1.45
2022-08-28T13:17:13.315Z,1.60
2022-08-28T13:19:40.479Z,1.60
2022-08-28T13:22:09.357Z,1.48
2022-08-28T13:24:36.641Z,1.73
2022-08-28T13:27:03.942Z,0.90
2022-08-28T13:29:31.581Z,1.33
2022-08-28T13:32:00.679Z,1.23
2022-08-28T13:34:29.377Z,1.05
2022-08-28T13:37:00.691Z,1.25
2022-08-28T13:39:29.299Z,1.23
2022-08-28T13:41:59.288Z,1.48
2022-08-28T13:44:32.582Z,1.40
2022-08-28T13:47:04.485Z,1.20
2022-08-28T13:49:32.128Z,1.60
2022-08-28T13:52:01.150Z,0.90
2022-08-28T13:54:29.153Z,1.33
2022-08-28T13:56:57.039Z,1.17
2022-08-28T13:59:24.459Z,1.30
2022-08-28T14:02:15.208Z,1.20
2022-08-28T14:04:42.479Z,1.50
2022-08-28T14:07:09.791Z,1.55
2022-08-28T14:09:37.067Z,1.20
2022-08-28T14:12:05.852Z,1.38
2022-08-28T14:14:33.712Z,1.38
2022-08-28T14:17:01.739Z,1.33
2022-08-28T14:19:29.657Z,1.35
2022-08-28T14:21:57.577Z,1.20
2022-08-28T14:24:24.983Z,1.33
2022-08-28T14:26:52.346Z,1.08
2022-08-28T14:29:19.529Z,1.60
2022-08-28T14:31:47.476Z,1.00
2022-08-28T14:34:17.991Z,1.70
2022-08-28T14:36:45.844Z,1.67
2022-08-28T14:39:14.144Z,1.23
2022-08-28T14:41:46.428Z,3.25
2022-08-28T14:44:14.191Z,3.13
2022-08-28T14:46:43.336Z,29.15
2022-08-28T14:49:11.655Z,70.03
2022-08-28T14:51:41.413Z,54.78
2022-08-28T14:54:11.075Z,94.65
2022-08-28T14:56:38.302Z,34.70
2022-08-28T14:59:10.250Z,24.98
2022-08-28T15:01:41.988Z,50.28
2022-08-28T15:04:11.768Z,27.33
2022-08-28T15:06:39.562Z,13.40
2022-08-28T15:09:06.816Z,19.83
2022-08-28T15:11:35.811Z,10.88
2022-08-28T15:14:03.043Z,7.68
2022-08-28T15:16:32.833Z,20.35
2022-08-28T15:19:01.015Z,8.60
2022-08-28T15:21:40.475Z,3.13
2022-08-28T15:24:09.753Z,4.82
2022-08-28T15:26:37.757Z,3.13
2022-08-28T15:29:07.038Z,2.20
2022-08-28T15:31:37.127Z,4.25
2022-08-28T15:34:13.144Z,5.20
2022-08-28T15:36:42.122Z,3.35
2022-08-28T15:39:28.071Z,5.25
2022-08-28T15:41:56.306Z,4.30
2022-08-28T15:44:23.859Z,3.75
2022-08-28T15:47:01.059Z,4.60
2022-08-28T15:49:30.531Z,3.25
2022-08-28T15:51:59.549Z,2.20
2022-08-28T15:54:26.647Z,2.55
2022-08-28T15:56:54.035Z,2.85
2022-08-28T15:59:23.637Z,1.92
2022-08-28T16:01:54.965Z,2.20
2022-08-28T16:04:22.562Z,1.73
2022-08-28T16:06:49.817Z,2.00
2022-08-28T16:09:26.212Z,2.10
2022-08-28T16:11:53.419Z,1.75
2022-08-28T16:14:21.220Z,1.98
2022-08-28T16:16:49.254Z,1.60
2022-08-28T16:19:17.860Z,1.60
2022-08-28T16:21:45.105Z,1.73
2022-08-28T16:24:11.978Z,1.80
2022-08-28T16:26:39.531Z,1.90
2022-08-28T16:29:06.777Z,1.25
2022-08-28T16:31:34.373Z,1.48
2022-08-28T16:34:02.969Z,1.80
2022-08-28T16:36:30.459Z,1.55
2022-08-28T16:39:00.323Z,2.05
2022-08-28T16:41:31.955Z,1.98
2022-08-28T16:43:58.916Z,1.92
2022-08-28T16:46:27.773Z,2.80
2022-08-28T16:48:55.148Z,2.70
2022-08-28T16:51:26.701Z,2.50
2022-08-28T16:53:54.792Z,2.42
2022-08-28T16:56:23.715Z,1.92
2022-08-28T16:58:53.116Z,1.70
2022-08-28T17:01:23.909Z,1.85
2022-08-28T17:03:51.692Z,1.80
2022-08-28T17:06:31.888Z,1.92
2022-08-28T17:08:59.310Z,1.40
2022-08-28T17:11:27.078Z,1.40
2022-08-28T17:13:54.536Z,1.70
2022-08-28T17:16:22.761Z,1.70
2022-08-28T17:18:52.251Z,1.45
2022-08-28T17:21:39.126Z,1.25
2022-08-28T17:24:06.903Z,1.42
2022-08-28T17:26:34.538Z,1.42
2022-08-28T17:29:02.288Z,1.70
2022-08-28T17:31:29.663Z,1.75
2022-08-28T17:33:56.553Z,1.70
2022-08-28T17:36:33.576Z,1.33
2022-08-28T17:39:02.923Z,1.80
2022-08-28T17:41:30.190Z,1.63
2022-08-28T17:43:57.517Z,1.60
2022-08-28T17:46:25.209Z,1.70
2022-08-28T17:48:55.800Z,1.70
2022-08-28T17:51:41.999Z,1.80
2022-08-28T17:54:11.718Z,1.42
2022-08-28T17:56:39.051Z,2.30
2022-08-28T17:59:06.334Z,1.85
2022-08-28T18:01:34.176Z,2.10
2022-08-28T18:04:01.574Z,1.73
2022-08-28T18:06:28.777Z,1.70
2022-08-28T18:08:56.020Z,1.60
2022-08-28T18:11:23.614Z,1.48
2022-08-28T18:13:50.859Z,1.60
2022-08-28T18:16:18.432Z,1.98
2022-08-28T18:18:45.658Z,2.08
2022-08-28T18:21:13.786Z,2.08
2022-08-28T18:23:41.189Z,2.05
2022-08-28T18:26:08.725Z,2.03
2022-08-28T18:28:36.876Z,1.92
2022-08-28T18:31:06.404Z,1.95
2022-08-28T18:33:37.074Z,1.63
2022-08-28T18:36:08.311Z,1.75
2022-08-28T18:38:35.605Z,1.65
2022-08-28T18:41:03.835Z,1.92
2022-08-28T18:43:31.423Z,2.60
2022-08-28T18:46:00.374Z,1.98
2022-08-28T18:48:28.739Z,1.48
2022-08-28T18:50:56.461Z,2.67
2022-08-28T18:53:24.642Z,3.47
2022-08-28T18:55:53.773Z,2.88
2022-08-28T18:58:23.118Z,2.80
2022-08-28T19:00:50.240Z,3.00
2022-08-28T19:03:17.420Z,2.10
2022-08-28T19:05:44.347Z,2.38
2022-08-28T19:08:12.007Z,1.88
2022-08-28T19:10:39.883Z,2.30
2022-08-28T19:13:08.219Z,2.63
2022-08-28T19:15:35.898Z,2.20
2022-08-28T19:18:05.183Z,1.80
2022-08-28T19:20:32.518Z,1.90
2022-08-28T19:23:00.553Z,2.28
2022-08-28T19:25:29.607Z,1.83
2022-08-28T19:28:02.076Z,1.77
2022-08-28T19:30:33.504Z,1.45
2022-08-28T19:33:02.485Z,1.85
2022-08-28T19:35:29.796Z,1.70
2022-08-28T19:37:57.075Z,1.85
2022-08-28T19:40:24.033Z,1.50
2022-08-28T19:42:51.287Z,1.90
2022-08-28T19:45:18.656Z,2.05
2022-08-28T19:47:46.815Z,1.60
2022-08-28T19:50:14.933Z,1.73
2022-08-28T19:52:43.400Z,1.70
2022-08-28T19:55:18.602Z,1.75
2022-08-28T19:57:46.863Z,1.90
2022-08-28T20:00:17.679Z,1.92
2022-08-28T20:02:45.679Z,1.98
2022-08-28T20:05:13.062Z,1.42
2022-08-28T20:07:40.393Z,1.80
2022-08-28T20:10:07.904Z,1.80
2022-08-28T20:12:34.964Z,1.70
2022-08-28T20:15:03.783Z,1.40
2022-08-28T20:17:31.296Z,1.40
2022-08-28T20:20:02.359Z,1.55
2022-08-28T20:22:32.141Z,1.75
2022-08-28T20:24:59.775Z,1.48
2022-08-28T20:27:26.739Z,2.13
2022-08-28T20:29:53.634Z,1.33
2022-08-28T20:32:20.959Z,1.80
2022-08-28T20:34:48.195Z,1.58
2022-08-28T20:37:16.805Z,1.80
2022-08-28T20:39:44.110Z,1.63
2022-08-28T20:42:11.834Z,1.48
2022-08-28T20:44:38.755Z,1.60
2022-08-28T20:47:06.127Z,1.60
2022-08-28T20:49:32.960Z,1.60
2022-08-28T20:52:06.867Z,1.52
2022-08-28T20:54:36.945Z,1.77
2022-08-28T20:57:07.540Z,1.98
2022-08-28T20:59:39.455Z,1.70
2022-08-28T21:02:12.311Z,1.55
2022-08-28T21:04:40.299Z,1.55
2022-08-28T21:07:07.350Z,1.65
2022-08-28T21:09:52.666Z,1.30
2022-08-28T21:12:22.547Z,1.35
2022-08-28T21:14:52.892Z,1.40
2022-08-28T21:17:28.896Z,1.40
2022-08-28T21:20:02.996Z,1.35
2022-08-28T21:22:31.831Z,1.23
2022-08-28T21:25:00.208Z,1.33
2022-08-28T21:27:27.624Z,1.17
2022-08-28T21:29:58.886Z,1.33
2022-08-28T21:32:26.877Z,1.60
2022-08-28T21:34:55.030Z,1.00
2022-08-28T21:37:22.353Z,1.67
2022-08-28T21:39:49.664Z,1.45
2022-08-28T21:42:16.763Z,1.10
2022-08-28T21:44:46.074Z,1.10
2022-08-28T21:47:19.081Z,1.40
2022-08-28T21:49:49.404Z,1.13
2022-08-28T21:52:17.752Z,1.10
2022-08-28T21:54:44.991Z,1.52
2022-08-28T21:57:12.364Z,1.10
2022-08-28T21:59:39.793Z,1.42
2022-08-28T22:02:07.652Z,1.30
2022-08-28T22:04:34.898Z,1.30
2022-08-28T22:07:02.292Z,1.13
2022-08-28T22:09:29.186Z,1.13
2022-08-28T22:11:56.435Z,1.25
2022-08-28T22:14:25.120Z,1.52
2022-08-28T22:16:52.617Z,1.00
2022-08-28T22:19:19.942Z,1.30
2022-08-28T22:22:06.033Z,1.30
2022-08-28T22:24:34.162Z,1.10
2022-08-28T22:27:01.365Z,1.10
2022-08-28T22:29:36.206Z,1.40
2022-08-28T22:32:04.977Z,0.88
2022-08-28T22:34:32.324Z,1.30
2022-08-28T22:36:59.580Z,1.75
2022-08-28T22:39:26.793Z,1.17
2022-08-28T22:41:54.188Z,1.50
2022-08-28T22:44:21.467Z,1.20
2022-08-28T22:46:48.269Z,1.42
2022-08-28T22:49:16.349Z,1.30
2022-08-28T22:51:43.552Z,1.23
2022-08-28T22:54:10.852Z,1.25
2022-08-28T22:56:38.089Z,1.08
2022-08-28T22:59:04.894Z,1.00
2022-08-28T23:01:32.138Z,1.40
2022-08-28T23:04:01.308Z,1.35
2022-08-28T23:06:28.602Z,1.67
2022-08-28T23:08:55.834Z,1.17
2022-08-28T23:11:23.481Z,1.10
2022-08-28T23:13:50.706Z,1.33
2022-08-28T23:16:23.973Z,1.35
2022-08-28T23:19:08.933Z,1.30
2022-08-28T23:21:40.811Z,1.10
2022-08-28T23:24:11.351Z,1.27
2022-08-28T23:26:38.606Z,1.20
2022-08-28T23:29:05.950Z,1.20
2022-08-28T23:31:33.190Z,1.70
2022-08-28T23:34:00.466Z,1.13
2022-08-28T23:36:27.923Z,1.35
2022-08-28T23:38:55.471Z,1.48
2022-08-28T23:41:22.680Z,1.20
2022-08-28T23:43:49.676Z,1.13
2022-08-28T23:46:17.541Z,1.65
2022-08-28T23:48:45.290Z,1.25
2022-08-28T23:51:16.977Z,1.20
2022-08-28T23:53:45.004Z,1.67
2022-08-28T23:56:12.795Z,1.25
2022-08-28T23:58:40.340Z,1.50
